^^
Station Historical Data
 
Daily Summary for February 18, 2019 Units:  English    Metric   Both
« Previous Day
Next Day »
Daily Weekly Monthly Yearly Custom
  Current: High: Low: Average:
Temperature: 48.8 °F TemperatureF °F 42.0 °F 48.5 °F
Dew Point: 36.0 °F DewpointF °F 29.5 °F 32.3 °F
Humidity: 61% Humidity% 41% 54%
Wind Speed: 3.0mph WindSpeedMPHmph 1.0mph 5.9mph
Wind Gust: 7.0mph WindSpeedGustMPHmph - -
WindNorth - - East
Pressure: 30.14 in PressureIn in 30.08 in -
Precipitation: 0.00 in      
Historical Graphs
 
 
Tabular Data for February 18, 2019
Time Temperature Dew Point Pressure Wind Wind Speed Wind Gust Humidity Rainfall Rate (Hourly) solar Conditions
TemperatureF °F DewpointF °F PressureIn in Calm     Humidity% HourlyPrecipIn in SolarRadiationWatts/m^2 W/m2 Conditions
00:00 46.5 °F 32.1 °F 30.08 in North 6.0 mph 11.0 mph 57% 0.00 in 0.00 W/m2
00:05 46.5 °F 32.1 °F 30.08 in East 7.0 mph 7.0 mph 57% 0.00 in 0.00 W/m2
00:10 46.4 °F 31.6 °F 30.08 in North 2.0 mph 3.0 mph 56% 0.00 in 0.00 W/m2
00:15 46.3 °F 31.5 °F 30.08 in ENE 3.0 mph 5.0 mph 56% 0.00 in 0.00 W/m2
00:20 46.3 °F 31.5 °F 30.08 in NNE 7.0 mph 8.0 mph 56% 0.00 in 0.00 W/m2
00:25 46.1 °F 31.3 °F 30.08 in NNE 9.0 mph 9.0 mph 56% 0.00 in 0.00 W/m2
00:30 46.0 °F 31.2 °F 30.09 in NE 2.0 mph 7.0 mph 56% 0.00 in 0.00 W/m2
00:35 45.9 °F 30.7 °F 30.09 in North 3.0 mph 5.0 mph 55% 0.00 in 0.00 W/m2
00:40 45.8 °F 30.6 °F 30.09 in ENE 5.0 mph 8.0 mph 55% 0.00 in 0.00 W/m2
00:45 45.7 °F 30.5 °F 30.09 in NE 11.0 mph 12.0 mph 55% 0.00 in 0.00 W/m2
00:50 45.7 °F 30.5 °F 30.09 in NNE 11.0 mph 11.0 mph 55% 0.00 in 0.00 W/m2
00:55 45.6 °F 30.4 °F 30.09 in East 6.0 mph 7.0 mph 55% 0.00 in 0.00 W/m2
01:00 45.6 °F 30.4 °F 30.10 in North 4.0 mph 6.0 mph 55% 0.00 in 0.00 W/m2
01:05 45.5 °F 30.3 °F 30.10 in NE 9.0 mph 11.0 mph 55% 0.00 in 0.00 W/m2
01:10 45.5 °F 30.3 °F 30.10 in East 8.0 mph 9.0 mph 55% 0.00 in 0.00 W/m2
01:15 45.5 °F 29.8 °F 30.10 in NNE 7.0 mph 13.0 mph 54% 0.00 in 0.00 W/m2
01:20 45.5 °F 29.8 °F 30.10 in NE 7.0 mph 8.0 mph 54% 0.00 in 0.00 W/m2
01:25 45.4 °F 30.2 °F 30.11 in ENE 13.0 mph 13.0 mph 55% 0.00 in 0.00 W/m2
01:30 45.4 °F 30.2 °F 30.11 in NE 1.0 mph 4.0 mph 55% 0.00 in 0.00 W/m2
01:35 45.3 °F 30.1 °F 30.11 in NNE 3.0 mph 6.0 mph 55% 0.00 in 0.00 W/m2
01:40 45.3 °F 30.1 °F 30.11 in ENE 12.0 mph 12.0 mph 55% 0.00 in 0.00 W/m2
01:45 45.2 °F 30.0 °F 30.10 in East 3.0 mph 7.0 mph 55% 0.00 in 0.00 W/m2
01:50 45.1 °F 29.9 °F 30.10 in North 4.0 mph 7.0 mph 55% 0.00 in 0.00 W/m2
01:55 45.1 °F 29.9 °F 30.10 in NE 8.0 mph 12.0 mph 55% 0.00 in 0.00 W/m2
02:00 45.1 °F 29.5 °F 30.10 in NE 4.0 mph 9.0 mph 54% 0.00 in 0.00 W/m2
02:05 45.2 °F 30.0 °F 30.11 in NNE 4.0 mph 5.0 mph 55% 0.00 in 0.00 W/m2
02:10 45.1 °F 29.9 °F 30.10 in East 10.0 mph 10.0 mph 55% 0.00 in 0.00 W/m2
02:15 45.1 °F 29.9 °F 30.11 in ENE 5.0 mph 5.0 mph 55% 0.00 in 0.00 W/m2
02:20 45.0 °F 29.8 °F 30.10 in NNE 3.0 mph 6.0 mph 55% 0.00 in 0.00 W/m2
02:25 45.0 °F 30.3 °F 30.10 in ENE 5.0 mph 10.0 mph 56% 0.00 in 0.00 W/m2
02:30 44.9 °F 30.2 °F 30.10 in NE 6.0 mph 12.0 mph 56% 0.00 in 0.00 W/m2
02:35 44.9 °F 30.2 °F 30.10 in ENE 9.0 mph 9.0 mph 56% 0.00 in 0.00 W/m2
02:40 44.8 °F 30.1 °F 30.10 in NNE 5.0 mph 9.0 mph 56% 0.00 in 0.00 W/m2
02:45 44.7 °F 30.4 °F 30.09 in ENE 3.0 mph 6.0 mph 57% 0.00 in 0.00 W/m2
02:50 44.7 °F 30.4 °F 30.10 in ENE 5.0 mph 7.0 mph 57% 0.00 in 0.00 W/m2
02:55 44.6 °F 30.3 °F 30.10 in ENE 10.0 mph 10.0 mph 57% 0.00 in 0.00 W/m2
03:00 44.5 °F 30.7 °F 30.09 in NNE 5.0 mph 6.0 mph 58% 0.00 in 0.00 W/m2
03:05 44.4 °F 31.0 °F 30.09 in NNW 4.0 mph 5.0 mph 59% 0.00 in 0.00 W/m2
03:10 44.3 °F 30.5 °F 30.09 in North 8.0 mph 8.0 mph 58% 0.00 in 0.00 W/m2
03:15 44.2 °F 30.8 °F 30.09 in NNE 6.0 mph 8.0 mph 59% 0.00 in 0.00 W/m2
03:20 44.1 °F 30.7 °F 30.09 in NNE 7.0 mph 7.0 mph 59% 0.00 in 0.00 W/m2
03:25 44.1 °F 31.1 °F 30.09 in NNE 4.0 mph 8.0 mph 60% 0.00 in 0.00 W/m2
03:30 44.0 °F 31.0 °F 30.09 in ENE 5.0 mph 8.0 mph 60% 0.00 in 0.00 W/m2
03:35 43.9 °F 30.9 °F 30.09 in ENE 4.0 mph 9.0 mph 60% 0.00 in 0.00 W/m2
03:40 43.8 °F 31.2 °F 30.08 in NE 10.0 mph 12.0 mph 61% 0.00 in 0.00 W/m2
03:45 43.7 °F 31.1 °F 30.09 in North 6.0 mph 7.0 mph 61% 0.00 in 0.00 W/m2
03:50 43.6 °F 31.1 °F 30.09 in NNE 2.0 mph 7.0 mph 61% 0.00 in 0.00 W/m2
03:55 43.5 °F 31.0 °F 30.09 in North 5.0 mph 7.0 mph 61% 0.00 in 0.00 W/m2
04:00 43.5 °F 31.0 °F 30.09 in ENE 2.0 mph 5.0 mph 61% 0.00 in 0.00 W/m2
04:05 43.4 °F 31.3 °F 30.09 in NNE 4.0 mph 4.0 mph 62% 0.00 in 0.00 W/m2
04:10 43.4 °F 31.3 °F 30.09 in NE 6.0 mph 8.0 mph 62% 0.00 in 0.00 W/m2
04:15 43.4 °F 30.9 °F 30.09 in North 3.0 mph 7.0 mph 61% 0.00 in 0.00 W/m2
04:20 43.4 °F 30.9 °F 30.09 in ENE 4.0 mph 5.0 mph 61% 0.00 in 0.00 W/m2
04:25 43.4 °F 30.9 °F 30.09 in North 1.0 mph 6.0 mph 61% 0.00 in 0.00 W/m2
04:30 43.3 °F 30.8 °F 30.09 in NNE 5.0 mph 10.0 mph 61% 0.00 in 0.00 W/m2
04:35 43.3 °F 30.8 °F 30.09 in NE 4.0 mph 5.0 mph 61% 0.00 in 0.00 W/m2
04:40 43.3 °F 30.4 °F 30.09 in ENE 3.0 mph 6.0 mph 60% 0.00 in 0.00 W/m2
04:45 43.3 °F 30.4 °F 30.08 in NNE 5.0 mph 5.0 mph 60% 0.00 in 0.00 W/m2
04:50 43.2 °F 30.7 °F 30.09 in NE 4.0 mph 4.0 mph 61% 0.00 in 0.00 W/m2
04:55 43.1 °F 30.6 °F 30.09 in NNE 6.0 mph 9.0 mph 61% 0.00 in 0.00 W/m2
05:00 43.0 °F 30.5 °F 30.09 in ENE 4.0 mph 8.0 mph 61% 0.00 in 0.00 W/m2
05:05 42.9 °F 30.4 °F 30.09 in NNW 3.0 mph 3.0 mph 61% 0.00 in 0.00 W/m2
05:10 42.9 °F 30.4 °F 30.09 in NE 4.0 mph 4.0 mph 61% 0.00 in 0.00 W/m2
05:15 42.8 °F 30.3 °F 30.09 in NNE 6.0 mph 6.0 mph 61% 0.00 in 0.00 W/m2
05:20 42.7 °F 30.2 °F 30.09 in NNE 3.0 mph 9.0 mph 61% 0.00 in 0.00 W/m2
05:25 42.6 °F 30.1 °F 30.10 in NE 6.0 mph 6.0 mph 61% 0.00 in 0.00 W/m2
05:30 42.5 °F 30.0 °F 30.10 in NE 5.0 mph 7.0 mph 61% 0.00 in 0.00 W/m2
05:35 42.5 °F 30.4 °F 30.10 in NE 7.0 mph 7.0 mph 62% 0.00 in 0.00 W/m2
05:40 42.4 °F 30.3 °F 30.10 in NNE 3.0 mph 4.0 mph 62% 0.00 in 0.00 W/m2
05:45 42.4 °F 30.7 °F 30.10 in NNE 3.0 mph 4.0 mph 63% 0.00 in 0.00 W/m2
05:50 42.3 °F 30.6 °F 30.11 in NE 2.0 mph 5.0 mph 63% 0.00 in 0.00 W/m2
05:55 42.3 °F 30.6 °F 30.10 in North 7.0 mph 8.0 mph 63% 0.00 in 0.00 W/m2
06:00 42.3 °F 30.6 °F 30.10 in NNE 4.0 mph 4.0 mph 63% 0.00 in 0.00 W/m2
06:05 42.3 °F 30.2 °F 30.10 in North 4.0 mph 6.0 mph 62% 0.00 in 0.00 W/m2
06:10 42.3 °F 30.2 °F 30.11 in North 9.0 mph 10.0 mph 62% 0.00 in 0.00 W/m2
06:15 42.2 °F 30.1 °F 30.11 in NNE 1.0 mph 2.0 mph 62% 0.00 in 0.00 W/m2
06:20 42.2 °F 30.5 °F 30.11 in NE 10.0 mph 10.0 mph 63% 0.00 in 0.00 W/m2
06:25 42.1 °F 30.4 °F 30.12 in East 6.0 mph 7.0 mph 63% 0.00 in 0.00 W/m2
06:30 42.0 °F 30.3 °F 30.11 in NNE 3.0 mph 4.0 mph 63% 0.00 in 0.00 W/m2
06:35 42.0 °F 30.3 °F 30.12 in NNW 4.0 mph 6.0 mph 63% 0.00 in 0.00 W/m2
06:40 42.0 °F 30.3 °F 30.12 in NE 7.0 mph 7.0 mph 63% 0.00 in 0.00 W/m2
06:45 42.0 °F 30.3 °F 30.12 in NNE 4.0 mph 4.0 mph 63% 0.00 in 0.00 W/m2
06:50 42.0 °F 30.3 °F 30.13 in NE 5.0 mph 9.0 mph 63% 0.00 in 0.00 W/m2
06:55 42.1 °F 30.4 °F 30.12 in North 3.0 mph 6.0 mph 63% 0.00 in 0.00 W/m2
07:00 42.0 °F 30.3 °F 30.12 in ENE 4.0 mph 7.0 mph 63% 0.00 in 0.00 W/m2
07:05 42.1 °F 30.4 °F 30.12 in NNW 4.0 mph 6.0 mph 63% 0.00 in 9.00 W/m2
07:10 42.0 °F 30.3 °F 30.13 in NE 8.0 mph 8.0 mph 63% 0.00 in 11.00 W/m2
07:15 42.0 °F 30.3 °F 30.13 in NNE 7.0 mph 7.0 mph 63% 0.00 in 16.00 W/m2
07:20 42.0 °F 30.7 °F 30.13 in North 1.0 mph 3.0 mph 64% 0.00 in 21.00 W/m2
07:25 42.1 °F 30.8 °F 30.14 in NNE 8.0 mph 9.0 mph 64% 0.00 in 30.00 W/m2
07:30 42.2 °F 30.9 °F 30.14 in ENE 5.0 mph 6.0 mph 64% 0.00 in 32.00 W/m2
07:35 42.3 °F 31.0 °F 30.15 in NNW 3.0 mph 6.0 mph 64% 0.00 in 35.00 W/m2
07:40 42.4 °F 31.1 °F 30.15 in NNE 4.0 mph 5.0 mph 64% 0.00 in 51.00 W/m2
07:45 42.5 °F 31.2 °F 30.15 in NE 5.0 mph 9.0 mph 64% 0.00 in 58.00 W/m2
07:50 42.8 °F 31.1 °F 30.16 in NE 3.0 mph 6.0 mph 63% 0.00 in 93.00 W/m2
07:55 42.9 °F 31.2 °F 30.15 in NNE 3.0 mph 8.0 mph 63% 0.00 in 90.00 W/m2
08:00 43.1 °F 31.0 °F 30.15 in NNW 5.0 mph 6.0 mph 62% 0.00 in 107.00 W/m2
08:05 43.3 °F 31.6 °F 30.15 in NNE 6.0 mph 8.0 mph 63% 0.00 in 158.00 W/m2
08:10 43.5 °F 31.4 °F 30.16 in NE 3.0 mph 4.0 mph 62% 0.00 in 134.00 W/m2
08:15 43.7 °F 31.6 °F 30.16 in ENE 1.0 mph 2.0 mph 62% 0.00 in 151.00 W/m2
08:20 44.0 °F 31.8 °F 30.16 in NE 7.0 mph 10.0 mph 62% 0.00 in 171.00 W/m2
08:25 44.5 °F 31.9 °F 30.17 in NE 6.0 mph 11.0 mph 61% 0.00 in 334.00 W/m2
08:30 45.2 °F 32.1 °F 30.17 in NW 3.0 mph 6.0 mph 60% 0.00 in 362.00 W/m2
08:35 45.8 °F 32.3 °F 30.18 in SE 4.0 mph 8.0 mph 59% 0.00 in 380.00 W/m2
08:40 46.3 °F 32.4 °F 30.18 in NE 3.0 mph 8.0 mph 58% 0.00 in 288.00 W/m2
08:45 46.2 °F 30.9 °F 30.18 in ENE 8.0 mph 9.0 mph 55% 0.00 in 323.00 W/m2
08:50 46.3 °F 32.4 °F 30.18 in ENE 3.0 mph 3.0 mph 58% 0.00 in 422.00 W/m2
08:55 46.4 °F 31.1 °F 30.18 in ESE 9.0 mph 9.0 mph 55% 0.00 in 394.00 W/m2
09:00 46.5 °F 31.7 °F 30.19 in NNE 8.0 mph 14.0 mph 56% 0.00 in 369.00 W/m2
09:05 46.9 °F 32.0 °F 30.19 in NE 7.0 mph 7.0 mph 56% 0.00 in 346.00 W/m2
09:10 47.1 °F 32.2 °F 30.19 in NE 7.0 mph 8.0 mph 56% 0.00 in 446.00 W/m2
09:15 47.5 °F 31.7 °F 30.19 in ENE 12.0 mph 12.0 mph 54% 0.00 in 540.00 W/m2
09:20 47.8 °F 32.0 °F 30.19 in East 6.0 mph 10.0 mph 54% 0.00 in 346.00 W/m2
09:25 47.6 °F 31.8 °F 30.19 in NE 12.0 mph 13.0 mph 54% 0.00 in 241.00 W/m2
09:30 47.8 °F 31.5 °F 30.20 in ENE 12.0 mph 13.0 mph 53% 0.00 in 501.00 W/m2
09:35 48.3 °F 32.0 °F 30.20 in NE 4.0 mph 4.0 mph 53% 0.00 in 526.00 W/m2
09:40 48.7 °F 30.9 °F 30.20 in ENE 5.0 mph 10.0 mph 50% 0.00 in 352.00 W/m2
09:45 48.7 °F 32.4 °F 30.20 in ENE 8.0 mph 8.0 mph 53% 0.00 in 552.00 W/m2
09:50 49.0 °F 32.2 °F 30.20 in NNE 7.0 mph 11.0 mph 52% 0.00 in 455.00 W/m2
09:55 49.0 °F 31.2 °F 30.20 in ENE 13.0 mph 13.0 mph 50% 0.00 in 578.00 W/m2
10:00 49.2 °F 31.4 °F 30.20 in ENE 7.0 mph 8.0 mph 50% 0.00 in 376.00 W/m2
10:05 49.2 °F 31.9 °F 30.20 in SSE 3.0 mph 5.0 mph 51% 0.00 in 606.00 W/m2
10:10 49.8 °F 31.4 °F 30.21 in ESE 11.0 mph 11.0 mph 49% 0.00 in 605.00 W/m2
10:15 50.5 °F 32.6 °F 30.20 in North 3.0 mph 9.0 mph 50% 0.00 in 629.00 W/m2
10:20 50.8 °F 32.4 °F 30.20 in ENE 5.0 mph 8.0 mph 49% 0.00 in 570.00 W/m2
10:25 51.1 °F 32.1 °F 30.21 in ENE 9.0 mph 15.0 mph 48% 0.00 in 619.00 W/m2
10:30 51.4 °F 31.3 °F 30.21 in ENE 12.0 mph 14.0 mph 46% 0.00 in 650.00 W/m2
10:35 51.6 °F 31.5 °F 30.20 in ESE 3.0 mph 13.0 mph 46% 0.00 in 654.00 W/m2
10:40 51.6 °F 32.0 °F 30.20 in SE 5.0 mph 12.0 mph 47% 0.00 in 649.00 W/m2
10:45 51.4 °F 30.8 °F 30.21 in ENE 10.0 mph 13.0 mph 45% 0.00 in 677.00 W/m2
10:50 51.5 °F 30.9 °F 30.21 in ENE 13.0 mph 13.0 mph 45% 0.00 in 608.00 W/m2
10:55 51.6 °F 31.5 °F 30.21 in NNE 10.0 mph 11.0 mph 46% 0.00 in 559.00 W/m2
11:00 51.9 °F 31.2 °F 30.21 in ENE 10.0 mph 11.0 mph 45% 0.00 in 661.00 W/m2
11:05 52.4 °F 31.7 °F 30.21 in ESE 7.0 mph 10.0 mph 45% 0.00 in 675.00 W/m2
11:10 52.8 °F 32.1 °F 30.20 in ENE 10.0 mph 16.0 mph 45% 0.00 in 721.00 W/m2
11:15 52.8 °F 32.1 °F 30.20 in ENE 16.0 mph 16.0 mph 45% 0.00 in 657.00 W/m2
11:20 52.8 °F 31.5 °F 30.20 in East 8.0 mph 10.0 mph 44% 0.00 in 740.00 W/m2
11:25 52.8 °F 31.5 °F 30.21 in ENE 7.0 mph 11.0 mph 44% 0.00 in 708.00 W/m2
11:30 52.7 °F 31.4 °F 30.21 in East 3.0 mph 9.0 mph 44% 0.00 in 520.00 W/m2
11:35 52.8 °F 32.1 °F 30.20 in SE 4.0 mph 6.0 mph 45% 0.00 in 538.00 W/m2
11:40 52.9 °F 31.6 °F 30.20 in ENE 7.0 mph 12.0 mph 44% 0.00 in 570.00 W/m2
11:45 53.6 °F 31.7 °F 30.20 in SE 7.0 mph 15.0 mph 43% 0.00 in 816.00 W/m2
11:50 54.3 °F 32.9 °F 30.20 in ENE 4.0 mph 8.0 mph 44% 0.00 in 758.00 W/m2
11:55 54.6 °F 33.1 °F 30.20 in NE 8.0 mph 8.0 mph 44% 0.00 in 874.00 W/m2
12:00 54.8 °F 31.6 °F 30.20 in ESE 5.0 mph 10.0 mph 41% 0.00 in 874.00 W/m2
12:05 54.2 °F 31.6 °F 30.20 in ENE 4.0 mph 8.0 mph 42% 0.00 in 332.00 W/m2
12:10 54.0 °F 32.6 °F 30.19 in ENE 10.0 mph 10.0 mph 44% 0.00 in 728.00 W/m2
12:15 54.4 °F 33.0 °F 30.19 in ENE 8.0 mph 11.0 mph 44% 0.00 in 817.00 W/m2
12:20 55.0 °F 33.5 °F 30.19 in ENE 5.0 mph 6.0 mph 44% 0.00 in 810.00 W/m2
12:25 55.3 °F 32.6 °F 30.19 in NE 3.0 mph 5.0 mph 42% 0.00 in 846.00 W/m2
12:30 55.5 °F 32.2 °F 30.19 in ESE 8.0 mph 10.0 mph 41% 0.00 in 626.00 W/m2
12:35 55.4 °F 33.3 °F 30.19 in East 15.0 mph 15.0 mph 43% 0.00 in 621.00 W/m2
12:40 54.9 °F 31.7 °F 30.18 in ENE 4.0 mph 10.0 mph 41% 0.00 in 387.00 W/m2
12:45 55.2 °F 32.5 °F 30.18 in ESE 4.0 mph 8.0 mph 42% 0.00 in 777.00 W/m2
12:50 56.0 °F 33.8 °F 30.18 in ENE 9.0 mph 9.0 mph 43% 0.00 in 926.00 W/m2
12:55 56.0 °F 32.6 °F 30.18 in ENE 9.0 mph 11.0 mph 41% 0.00 in 538.00 W/m2
13:00 55.9 °F 33.2 °F 30.17 in ENE 11.0 mph 11.0 mph 42% 0.00 in 856.00 W/m2
13:05 55.9 °F 33.2 °F 30.17 in East 10.0 mph 10.0 mph 42% 0.00 in 895.00 W/m2
13:10 56.0 °F 33.2 °F 30.17 in NNE 5.0 mph 14.0 mph 42% 0.00 in 816.00 W/m2
13:15 56.6 °F 35.5 °F 30.16 in ENE 5.0 mph 9.0 mph 45% 0.00 in 621.00 W/m2
13:20 56.7 °F 35.0 °F 30.16 in East 10.0 mph 10.0 mph 44% 0.00 in 489.00 W/m2
13:25 56.7 °F 35.0 °F 30.15 in ENE 7.0 mph 8.0 mph 44% 0.00 in 601.00 W/m2
13:30 56.9 °F 34.1 °F 30.15 in NE 4.0 mph 8.0 mph 42% 0.00 in 673.00 W/m2
13:35 56.8 °F 34.6 °F 30.15 in NNE 8.0 mph 10.0 mph 43% 0.00 in 752.00 W/m2
13:40 56.2 °F 34.6 °F 30.15 in ENE 8.0 mph 10.0 mph 44% 0.00 in 659.00 W/m2
13:45 56.3 °F 35.2 °F 30.15 in North 7.0 mph 7.0 mph 45% 0.00 in 513.00 W/m2
13:50 56.9 °F 35.2 °F 30.14 in ENE 7.0 mph 10.0 mph 44% 0.00 in 680.00 W/m2
13:55 56.8 °F 35.1 °F 30.14 in NE 8.0 mph 13.0 mph 44% 0.00 in 631.00 W/m2
14:00 56.5 °F 35.4 °F 30.14 in NNW 8.0 mph 9.0 mph 45% 0.00 in 417.00 W/m2
14:05 56.8 °F 35.1 °F 30.14 in ENE 7.0 mph 11.0 mph 44% 0.00 in 380.00 W/m2
14:10 56.5 °F 35.4 °F 30.14 in NNE 4.0 mph 5.0 mph 45% 0.00 in 345.00 W/m2
14:15 56.0 °F 34.4 °F 30.14 in ENE 10.0 mph 10.0 mph 44% 0.00 in 480.00 W/m2
14:20 55.8 °F 35.4 °F 30.14 in NNE 5.0 mph 12.0 mph 46% 0.00 in 376.00 W/m2
14:25 55.9 °F 35.4 °F 30.14 in ENE 2.0 mph 5.0 mph 46% 0.00 in 729.00 W/m2
14:30 56.4 °F 35.3 °F 30.14 in ESE 7.0 mph 13.0 mph 45% 0.00 in 292.00 W/m2
14:35 56.2 °F 35.7 °F 30.13 in NE 5.0 mph 7.0 mph 46% 0.00 in 396.00 W/m2
14:40 55.9 °F 36.0 °F 30.13 in North 3.0 mph 7.0 mph 47% 0.00 in 499.00 W/m2
14:45 56.1 °F 36.2 °F 30.13 in NE 3.0 mph 5.0 mph 47% 0.00 in 626.00 W/m2
14:50 56.3 °F 35.2 °F 30.13 in East 7.0 mph 13.0 mph 45% 0.00 in 450.00 W/m2
14:55 56.5 °F 35.4 °F 30.13 in North 3.0 mph 9.0 mph 45% 0.00 in 624.00 W/m2
15:00 56.8 °F 35.7 °F 30.12 in NNE 3.0 mph 5.0 mph 45% 0.00 in 682.00 W/m2
15:05 57.2 °F 35.5 °F 30.13 in NE 6.0 mph 12.0 mph 44% 0.00 in 503.00 W/m2
15:10 56.9 °F 35.8 °F 30.12 in NNE 4.0 mph 10.0 mph 45% 0.00 in 478.00 W/m2
15:15 56.5 °F 36.0 °F 30.12 in North 5.0 mph 12.0 mph 46% 0.00 in 306.00 W/m2
15:20 56.1 °F 34.5 °F 30.12 in ENE 7.0 mph 10.0 mph 44% 0.00 in 313.00 W/m2
15:25 55.6 °F 36.2 °F 30.12 in North 6.0 mph 6.0 mph 48% 0.00 in 411.00 W/m2
15:30 55.7 °F 35.8 °F 30.12 in NE 4.0 mph 5.0 mph 47% 0.00 in 276.00 W/m2
15:35 55.5 °F 35.6 °F 30.12 in NNW 6.0 mph 7.0 mph 47% 0.00 in 243.00 W/m2
15:40 55.1 °F 36.3 °F 30.12 in North 9.0 mph 10.0 mph 49% 0.00 in 374.00 W/m2
15:45 55.0 °F 36.2 °F 30.12 in NNW 5.0 mph 8.0 mph 49% 0.00 in 318.00 W/m2
15:50 55.1 °F 36.3 °F 30.12 in North 9.0 mph 9.0 mph 49% 0.00 in 239.00 W/m2
15:55 55.0 °F 36.2 °F 30.12 in ENE 7.0 mph 7.0 mph 49% 0.00 in 313.00 W/m2
16:00 55.1 °F 35.8 °F 30.12 in NNE 6.0 mph 7.0 mph 48% 0.00 in 315.00 W/m2
16:05 54.9 °F 36.1 °F 30.12 in North 5.0 mph 5.0 mph 49% 0.00 in 295.00 W/m2
16:10 54.8 °F 36.0 °F 30.12 in ENE 8.0 mph 9.0 mph 49% 0.00 in 213.00 W/m2
16:15 54.7 °F 35.9 °F 30.12 in SE 1.0 mph 7.0 mph 49% 0.00 in 197.00 W/m2
16:20 54.3 °F 35.6 °F 30.12 in North 5.0 mph 7.0 mph 49% 0.00 in 197.00 W/m2
16:25 54.0 °F 36.3 °F 30.12 in NE 3.0 mph 4.0 mph 51% 0.00 in 160.00 W/m2
16:30 53.9 °F 36.2 °F 30.12 in NNE 7.0 mph 7.0 mph 51% 0.00 in 265.00 W/m2
16:35 53.7 °F 36.5 °F 30.12 in NNE 5.0 mph 5.0 mph 52% 0.00 in 172.00 W/m2
16:40 53.6 °F 35.9 °F 30.12 in ENE 7.0 mph 8.0 mph 51% 0.00 in 137.00 W/m2
16:45 53.6 °F 36.4 °F 30.12 in NNE 6.0 mph 7.0 mph 52% 0.00 in 104.00 W/m2
16:50 53.5 °F 35.8 °F 30.12 in North 2.0 mph 5.0 mph 51% 0.00 in 93.00 W/m2
16:55 53.3 °F 36.1 °F 30.12 in NE 7.0 mph 9.0 mph 52% 0.00 in 100.00 W/m2
17:00 53.0 °F 35.9 °F 30.12 in NNE 6.0 mph 6.0 mph 52% 0.00 in 100.00 W/m2
17:05 52.9 °F 35.8 °F 30.12 in North 10.0 mph 10.0 mph 52% 0.00 in 95.00 W/m2
17:10 52.8 °F 36.2 °F 30.12 in NNE 6.0 mph 6.0 mph 53% 0.00 in 95.00 W/m2
17:15 52.6 °F 36.5 °F 30.12 in NE 13.0 mph 13.0 mph 54% 0.00 in 84.00 W/m2
17:20 52.3 °F 36.2 °F 30.12 in NE 9.0 mph 9.0 mph 54% 0.00 in 69.00 W/m2
17:25 52.1 °F 36.0 °F 30.12 in NNE 6.0 mph 7.0 mph 54% 0.00 in 62.00 W/m2
17:30 51.8 °F 36.2 °F 30.12 in NNW 5.0 mph 7.0 mph 55% 0.00 in 56.00 W/m2
17:35 51.7 °F 36.5 °F 30.12 in NNE 5.0 mph 5.0 mph 56% 0.00 in 58.00 W/m2
17:40 51.4 °F 36.7 °F 30.13 in NNE 6.0 mph 7.0 mph 57% 0.00 in 49.00 W/m2
17:45 51.2 °F 36.5 °F 30.13 in ENE 5.0 mph 5.0 mph 57% 0.00 in 28.00 W/m2
17:50 50.8 °F 36.1 °F 30.13 in NNE 7.0 mph 7.0 mph 57% 0.00 in 28.00 W/m2
17:55 50.4 °F 36.2 °F 30.13 in NNE 6.0 mph 8.0 mph 58% 0.00 in 30.00 W/m2
18:00 50.1 °F 36.4 °F 30.13 in NNW 3.0 mph 7.0 mph 59% 0.00 in 28.00 W/m2
18:05 49.9 °F 36.2 °F 30.13 in North 5.0 mph 5.0 mph 59% 0.00 in 12.00 W/m2
18:10 49.7 °F 36.0 °F 30.13 in North 1.0 mph 4.0 mph 59% 0.00 in 5.00 W/m2
18:15 49.4 °F 36.1 °F 30.13 in NE 8.0 mph 8.0 mph 60% 0.00 in 0.00 W/m2
18:20 49.2 °F 35.9 °F 30.14 in North 4.0 mph 5.0 mph 60% 0.00 in 0.00 W/m2
18:25 49.1 °F 36.2 °F 30.14 in North 3.0 mph 6.0 mph 61% 0.00 in 0.00 W/m2
18:30 48.8 °F 36.0 °F 30.14 in North 3.0 mph 7.0 mph 61% 0.00 in 0.00 W/m2
Zyle Road, Texas, USA
Compliments of Weather Underground - 2.75 mb